Time;durP1;ratioP1;P1;durP2;ratioP2;P2;SDS_P1;SDS_P2;PMS_P1;PMS_P2;Temp;Humidity;BMP_temperature;BMP_pressure;BME280_temperature;BME280_humidity;BME280_pressure;Samples;Min_cycle;Max_cycle;Signal;HPM_P1;HPM_P2
2022/06/05 00:01:21;;;;;;;11.88;7.18;;;12.10;99.90;;;;;;5044254;28;20041;-75
2022/06/05 00:04:24;;;;;;;12.27;7.05;;;12.10;99.90;;;;;;5037223;28;20240;-75
2022/06/05 00:07:12;;;;;;;13.18;7.60;;;12.10;99.90;;;;;;5041496;28;20147;-76
2022/06/05 00:10:16;;;;;;;14.25;7.47;;;12.10;99.90;;;;;;5044557;28;20048;-76
2022/06/05 00:13:13;;;;;;;13.70;8.00;;;12.10;99.90;;;;;;5049467;28;20123;-76
2022/06/05 00:15:38;;;;;;;12.82;7.72;;;12.10;99.90;;;;;;5050910;28;20586;-76
2022/06/05 00:18:13;;;;;;;10.57;7.32;;;12.10;99.90;;;;;;5053592;28;20036;-75
2022/06/05 00:20:43;;;;;;;11.60;7.25;;;12.00;99.90;;;;;;5048888;28;20073;-76
2022/06/05 00:23:09;;;;;;;13.68;8.20;;;12.10;99.90;;;;;;5044625;28;20044;-76
2022/06/05 00:25:51;;;;;;;15.35;8.10;;;12.10;99.90;;;;;;5039208;28;20505;-76
2022/06/05 00:28:37;;;;;;;18.70;8.18;;;12.10;99.90;;;;;;5042319;28;20144;-77
2022/06/05 00:31:31;;;;;;;12.55;8.00;;;12.10;99.90;;;;;;5051375;28;20080;-76
2022/06/05 00:33:57;;;;;;;14.10;7.72;;;12.20;99.90;;;;;;5049008;28;20071;-77
2022/06/05 00:36:44;;;;;;;13.52;8.55;;;12.10;99.90;;;;;;5045798;28;20231;-78
2022/06/05 00:39:12;;;;;;;12.20;7.45;;;12.10;99.90;;;;;;5047609;28;20509;-77
2022/06/05 00:41:53;;;;;;;12.65;8.05;;;12.10;99.90;;;;;;5046570;28;20061;-77
2022/06/05 00:44:38;;;;;;;10.65;7.88;;;12.10;99.90;;;;;;5049530;28;20175;-78
2022/06/05 00:47:08;;;;;;;18.08;8.10;;;12.10;99.90;;;;;;5047839;28;20103;-76
2022/06/05 00:49:38;;;;;;;14.90;7.75;;;12.10;99.90;;;;;;5048163;28;20354;-76
2022/06/05 00:52:06;;;;;;;13.82;8.43;;;12.10;99.90;;;;;;5046375;28;20137;-76
2022/06/05 00:54:32;;;;;;;15.45;8.38;;;12.10;99.90;;;;;;5045234;28;20053;-77
2022/06/05 00:56:57;;;;;;;14.07;8.02;;;12.10;99.90;;;;;;5038421;28;20052;-78
2022/06/05 00:59:23;;;;;;;17.45;7.88;;;12.10;99.90;;;;;;5049660;28;20040;-77
2022/06/05 01:01:54;;;;;;;12.50;8.07;;;12.20;99.90;;;;;;5050037;28;20056;-77
2022/06/05 01:04:22;;;;;;;13.98;8.20;;;12.10;99.90;;;;;;5046876;28;20052;-77
2022/06/05 01:06:48;;;;;;;16.80;9.27;;;12.10;99.90;;;;;;5074050;28;20098;-77
2022/06/05 01:09:14;;;;;;;15.65;8.45;;;12.10;99.90;;;;;;5038729;28;20509;-76
2022/06/05 01:11:52;;;;;;;11.68;7.72;;;12.10;99.90;;;;;;5049568;28;20040;-76
2022/06/05 01:14:33;;;;;;;17.13;8.35;;;12.10;99.90;;;;;;5049312;28;20075;-76
2022/06/05 01:17:02;;;;;;;14.98;8.60;;;12.20;99.90;;;;;;5044040;28;20423;-76
2022/06/05 01:19:45;;;;;;;13.88;8.43;;;12.10;99.90;;;;;;5047838;28;20153;-77
2022/06/05 01:22:49;;;;;;;16.50;8.23;;;12.10;99.90;;;;;;5042684;28;20060;-77
2022/06/05 01:25:39;;;;;;;13.57;7.97;;;12.10;99.90;;;;;;5044691;28;20041;-77
2022/06/05 01:28:11;;;;;;;14.35;7.90;;;12.10;99.90;;;;;;5037750;28;20376;-75
2022/06/05 01:31:18;;;;;;;10.07;7.20;;;12.10;99.90;;;;;;5041058;28;20368;-77
2022/06/05 01:34:01;;;;;;;11.68;7.65;;;12.10;99.90;;;;;;5044408;28;20123;-76
2022/06/05 01:36:45;;;;;;;10.75;7.05;;;12.10;99.90;;;;;;5038352;28;20088;-76
2022/06/05 01:39:15;;;;;;;13.35;7.97;;;12.00;99.90;;;;;;5030414;28;20040;-76
2022/06/05 01:41:55;;;;;;;13.38;7.15;;;12.10;99.90;;;;;;5044858;28;20049;-77
2022/06/05 01:44:35;;;;;;;18.67;8.05;;;12.10;99.90;;;;;;5041860;28;20081;-76
2022/06/05 01:47:06;;;;;;;13.25;7.72;;;12.00;99.90;;;;;;5044240;28;20475;-77
2022/06/05 01:49:42;;;;;;;12.77;7.03;;;12.10;99.90;;;;;;5031361;28;20055;-77
2022/06/05 01:52:22;;;;;;;11.93;7.05;;;12.10;99.90;;;;;;5034680;28;20048;-78
2022/06/05 01:55:02;;;;;;;11.63;7.50;;;12.10;99.90;;;;;;5032735;28;20057;-78
2022/06/05 01:57:30;;;;;;;16.30;7.57;;;12.10;99.90;;;;;;5042430;28;20480;-78
2022/06/05 02:00:21;;;;;;;15.55;7.30;;;12.10;99.90;;;;;;5038173;28;21519;-78
2022/06/05 02:02:55;;;;;;;13.48;7.43;;;12.10;99.90;;;;;;5070972;28;20373;-78
2022/06/05 02:05:28;;;;;;;12.55;7.20;;;12.10;99.90;;;;;;5044452;28;20048;-76
2022/06/05 02:08:03;;;;;;;12.65;7.28;;;12.10;99.90;;;;;;5042235;28;20048;-76
2022/06/05 02:10:36;;;;;;;17.40;7.90;;;12.10;99.90;;;;;;5042716;28;20079;-76
2022/06/05 02:13:02;;;;;;;15.25;7.28;;;12.10;99.90;;;;;;5048226;28;20141;-76
2022/06/05 02:15:29;;;;;;;14.13;6.88;;;12.10;99.90;;;;;;5042128;28;20088;-77
2022/06/05 02:18:00;;;;;;;12.25;7.82;;;12.10;99.90;;;;;;5046823;28;20433;-77
2022/06/05 02:20:26;;;;;;;19.20;7.93;;;12.10;99.90;;;;;;5040775;28;20049;-76
2022/06/05 02:22:52;;;;;;;15.35;7.85;;;12.20;99.90;;;;;;5043248;28;20112;-76
2022/06/05 02:25:22;;;;;;;18.88;7.57;;;12.20;99.90;;;;;;5044316;28;20464;-76
2022/06/05 02:27:48;;;;;;;12.50;7.30;;;12.20;99.90;;;;;;5039191;28;20134;-76
2022/06/05 02:30:15;;;;;;;9.98;6.90;;;12.20;99.90;;;;;;5040921;28;20490;-75
2022/06/05 02:33:07;;;;;;;14.75;7.18;;;12.20;99.90;;;;;;5036654;28;20129;-75
2022/06/05 02:36:10;;;;;;;13.18;7.75;;;12.20;99.90;;;;;;5045376;28;20052;-76
2022/06/05 02:38:59;;;;;;;13.32;7.72;;;12.20;99.90;;;;;;5045747;28;20045;-76
2022/06/05 02:41:32;;;;;;;13.35;8.55;;;12.20;99.90;;;;;;5047205;28;20389;-76
2022/06/05 02:44:31;;;;;;;16.45;7.50;;;12.30;99.90;;;;;;5047215;28;20049;-77
2022/06/05 02:47:10;;;;;;;15.45;7.93;;;12.30;99.90;;;;;;5047992;28;20452;-77
2022/06/05 02:49:47;;;;;;;20.00;8.35;;;12.20;99.90;;;;;;5046860;28;20044;-77
2022/06/05 02:52:13;;;;;;;13.30;8.02;;;12.30;99.90;;;;;;5044874;28;20461;-77
2022/06/05 02:54:50;;;;;;;14.25;8.30;;;12.30;99.90;;;;;;5044817;28;20060;-77
2022/06/05 02:57:16;;;;;;;13.18;7.65;;;12.30;99.90;;;;;;5049226;28;20134;-77
2022/06/05 02:59:42;;;;;;;16.52;8.68;;;12.30;99.90;;;;;;5060736;28;20102;-77
2022/06/05 03:04:52;;;;;;;18.98;9.27;;;12.30;99.90;;;;;;5031201;28;20390;-77
2022/06/05 03:07:17;;;;;;;11.65;8.15;;;12.30;99.90;;;;;;5037816;28;20036;-77
2022/06/05 03:09:43;;;;;;;15.60;8.73;;;12.30;99.90;;;;;;5046342;28;20056;-77
2022/06/05 03:12:10;;;;;;;16.15;8.80;;;12.40;99.90;;;;;;5043395;28;20037;-77
2022/06/05 03:14:36;;;;;;;17.00;8.48;;;12.30;99.90;;;;;;5035970;28;20112;-77
2022/06/05 03:17:04;;;;;;;15.63;8.63;;;12.40;99.90;;;;;;5038028;28;20119;-77
2022/06/05 03:19:30;;;;;;;17.45;9.27;;;12.30;99.90;;;;;;5047847;28;20048;-77
2022/06/05 03:21:58;;;;;;;19.35;9.93;;;12.40;99.90;;;;;;5045380;28;20122;-77
2022/06/05 03:24:24;;;;;;;17.27;9.55;;;12.40;99.90;;;;;;5043364;28;20050;-76
2022/06/05 03:26:50;;;;;;;16.33;9.13;;;12.40;99.90;;;;;;5036197;28;20143;-76
2022/06/05 03:29:15;;;;;;;16.88;9.20;;;12.40;99.90;;;;;;5045230;28;20049;-76
2022/06/05 03:31:41;;;;;;;20.85;9.98;;;12.40;99.90;;;;;;5044421;28;20037;-76
2022/06/05 03:34:08;;;;;;;14.88;8.73;;;12.50;99.90;;;;;;5038733;28;20133;-76
2022/06/05 03:36:34;;;;;;;18.17;9.82;;;12.50;99.90;;;;;;5032091;28;20075;-76
2022/06/05 03:38:59;;;;;;;16.20;9.57;;;12.50;99.90;;;;;;5047258;28;20028;-76
2022/06/05 03:41:28;;;;;;;15.68;9.20;;;12.50;99.90;;;;;;5045039;28;20541;-75
2022/06/05 03:43:54;;;;;;;22.33;9.98;;;12.50;99.90;;;;;;5044051;28;20199;-76
2022/06/05 03:46:20;;;;;;;18.70;10.20;;;12.50;99.90;;;;;;5039886;28;20036;-76
2022/06/05 03:48:45;;;;;;;20.15;9.60;;;12.60;99.90;;;;;;5044168;28;20489;-76
2022/06/05 03:51:17;;;;;;;15.73;9.15;;;12.60;99.90;;;;;;5037527;28;20044;-77
2022/06/05 03:53:43;;;;;;;19.20;8.90;;;12.60;99.90;;;;;;5037079;28;20041;-77
2022/06/05 03:56:21;;;;;;;21.83;9.13;;;12.60;99.90;;;;;;5042756;28;20049;-76
2022/06/05 03:58:48;;;;;;;22.27;9.70;;;12.60;99.90;;;;;;5040572;28;20033;-76
2022/06/05 04:01:17;;;;;;;15.93;9.65;;;12.60;99.90;;;;;;5042447;28;20421;-76
2022/06/05 04:03:43;;;;;;;16.10;9.50;;;12.60;99.90;;;;;;5041053;28;20140;-77
2022/06/05 04:06:11;;;;;;;16.83;9.25;;;12.70;99.90;;;;;;5040127;28;20069;-76
2022/06/05 04:08:38;;;;;;;19.52;9.98;;;12.70;99.90;;;;;;5029391;28;20102;-76
2022/06/05 04:11:08;;;;;;;17.02;9.38;;;12.70;99.90;;;;;;5044912;28;20040;-76
2022/06/05 04:13:34;;;;;;;16.63;9.20;;;12.70;99.90;;;;;;5044123;28;20405;-76
2022/06/05 04:16:00;;;;;;;15.02;9.55;;;12.80;99.90;;;;;;5033623;28;20087;-76
2022/06/05 04:18:26;;;;;;;16.58;10.02;;;12.70;99.90;;;;;;5044619;28;20396;-76
2022/06/05 04:20:52;;;;;;;16.20;9.68;;;12.70;99.90;;;;;;5045435;28;20507;-76
2022/06/05 04:23:17;;;;;;;21.65;9.93;;;12.80;99.90;;;;;;5041797;28;20037;-76
2022/06/05 04:25:44;;;;;;;18.13;10.05;;;12.80;99.90;;;;;;5040189;28;20041;-76
2022/06/05 04:28:11;;;;;;;15.98;9.55;;;12.90;99.90;;;;;;5072023;28;20483;-75
2022/06/05 04:30:38;;;;;;;13.75;9.25;;;12.90;99.90;;;;;;5043385;28;20072;-75
2022/06/05 04:33:07;;;;;;;18.45;9.88;;;12.90;99.90;;;;;;5041676;28;20520;-76
2022/06/05 04:35:36;;;;;;;17.30;9.80;;;13.00;99.90;;;;;;5043823;28;20291;-76
2022/06/05 04:38:03;;;;;;;16.85;9.07;;;13.00;99.90;;;;;;5045436;28;20374;-76
2022/06/05 04:40:28;;;;;;;16.50;8.98;;;13.00;99.90;;;;;;5042100;28;20072;-77
2022/06/05 04:42:54;;;;;;;14.77;9.63;;;13.10;99.90;;;;;;5046143;28;20040;-77
2022/06/05 04:45:20;;;;;;;16.15;9.23;;;13.20;99.90;;;;;;5040999;28;20141;-76
2022/06/05 04:47:46;;;;;;;20.17;10.40;;;13.20;99.90;;;;;;5044406;28;20200;-76
2022/06/05 04:50:11;;;;;;;13.13;9.55;;;13.20;99.90;;;;;;5042046;28;20064;-76
2022/06/05 04:52:37;;;;;;;14.20;9.80;;;13.40;99.90;;;;;;5031708;28;20048;-76
2022/06/05 04:55:03;;;;;;;17.20;9.98;;;13.40;99.90;;;;;;5040825;28;20053;-78
2022/06/05 04:57:29;;;;;;;18.48;10.68;;;13.40;99.90;;;;;;5048035;28;20166;-76
2022/06/05 04:59:54;;;;;;;23.00;9.80;;;13.50;99.90;;;;;;5036702;28;20450;-76
2022/06/05 05:02:20;;;;;;;14.77;9.70;;;13.50;99.90;;;;;;5036203;28;20117;-76
2022/06/05 05:04:47;;;;;;;15.68;10.15;;;13.60;99.90;;;;;;5039262;28;20060;-76
2022/06/05 05:07:16;;;;;;;18.85;11.05;;;13.70;99.90;;;;;;5035247;28;20087;-76
2022/06/05 05:09:44;;;;;;;15.40;9.98;;;13.70;99.90;;;;;;5044750;28;20041;-76
2022/06/05 05:12:10;;;;;;;17.08;10.48;;;13.70;99.90;;;;;;5049641;28;20045;-77
2022/06/05 05:14:39;;;;;;;21.27;10.88;;;13.80;99.90;;;;;;5038892;28;20044;-76
2022/06/05 05:17:05;;;;;;;16.75;10.68;;;13.80;99.90;;;;;;5048030;28;20059;-76
2022/06/05 05:19:31;;;;;;;18.48;9.70;;;13.80;99.90;;;;;;5037390;28;20045;-76
2022/06/05 05:21:57;;;;;;;15.82;10.40;;;13.80;99.90;;;;;;5046106;28;20124;-76
2022/06/05 05:24:23;;;;;;;12.20;8.90;;;13.90;99.90;;;;;;5032008;28;20037;-76
2022/06/05 05:26:48;;;;;;;16.80;11.35;;;13.90;99.90;;;;;;5044950;28;20048;-76
2022/06/05 05:29:14;;;;;;;18.13;9.98;;;13.90;99.90;;;;;;5046720;28;20048;-76
2022/06/05 05:31:42;;;;;;;16.77;10.90;;;14.00;99.90;;;;;;5031138;28;20343;-77
2022/06/05 05:34:08;;;;;;;15.45;10.10;;;14.00;99.90;;;;;;5042710;28;20052;-76
2022/06/05 05:36:35;;;;;;;17.58;11.15;;;14.00;99.90;;;;;;5028895;28;20041;-77
2022/06/05 05:42:06;;;;;;;15.73;10.15;;;14.10;99.90;;;;;;5050500;28;20492;-77
2022/06/05 05:44:42;;;;;;;16.70;9.48;;;14.20;99.90;;;;;;5039530;28;20132;-78
2022/06/05 05:47:12;;;;;;;20.75;10.63;;;14.30;99.90;;;;;;5047542;28;20037;-77
2022/06/05 05:49:39;;;;;;;15.85;10.18;;;14.40;99.90;;;;;;5038578;28;20041;-77
2022/06/05 05:52:06;;;;;;;14.48;10.30;;;14.50;99.90;;;;;;5037844;28;20041;-76
2022/06/05 05:54:33;;;;;;;17.00;10.63;;;14.50;99.90;;;;;;5050436;28;20056;-76
2022/06/05 05:57:00;;;;;;;13.57;10.27;;;14.70;99.90;;;;;;5042666;28;20128;-78
2022/06/05 05:59:26;;;;;;;15.13;9.57;;;14.70;99.90;;;;;;5048152;28;20045;-77
2022/06/05 06:01:52;;;;;;;20.52;10.27;;;14.80;99.90;;;;;;5046036;28;20056;-76
2022/06/05 06:04:18;;;;;;;14.38;9.90;;;14.90;99.90;;;;;;5042768;28;20044;-78
2022/06/05 06:06:45;;;;;;;13.48;10.07;;;14.90;99.90;;;;;;5044605;28;20048;-78
2022/06/05 06:09:11;;;;;;;16.25;11.00;;;15.00;99.90;;;;;;5037878;28;20441;-75
2022/06/05 06:11:37;;;;;;;14.75;10.23;;;15.10;99.90;;;;;;5040280;28;20090;-77
2022/06/05 06:14:04;;;;;;;14.07;9.05;;;15.10;99.90;;;;;;5046334;28;20164;-75
2022/06/05 06:16:29;;;;;;;12.55;9.02;;;15.20;99.90;;;;;;5077644;28;20052;-77
2022/06/05 06:18:56;;;;;;;12.68;9.07;;;15.20;99.90;;;;;;5046931;28;20056;-77
2022/06/05 06:21:23;;;;;;;17.58;10.27;;;15.30;99.90;;;;;;5040784;28;20041;-78
2022/06/05 06:23:49;;;;;;;14.30;9.55;;;15.30;99.90;;;;;;5040132;28;20397;-77
2022/06/05 06:26:15;;;;;;;14.10;9.65;;;15.30;99.90;;;;;;5039940;28;20052;-78
2022/06/05 06:28:40;;;;;;;14.23;8.40;;;15.40;99.90;;;;;;5078550;28;20052;-77
2022/06/05 06:31:09;;;;;;;13.07;8.68;;;15.40;99.90;;;;;;5074310;28;20053;-77
2022/06/05 06:33:35;;;;;;;15.43;9.13;;;15.50;99.90;;;;;;5047030;28;20111;-77
2022/06/05 06:36:06;;;;;;;14.23;9.43;;;15.50;99.90;;;;;;5046492;28;20060;-78
2022/06/05 06:38:33;;;;;;;13.63;9.33;;;15.60;99.90;;;;;;5030744;28;20050;-78
2022/06/05 06:41:00;;;;;;;11.65;9.32;;;15.60;99.90;;;;;;5036863;28;20048;-78
2022/06/05 06:43:26;;;;;;;12.18;8.55;;;15.70;99.90;;;;;;5046016;28;20958;-78
2022/06/05 06:45:54;;;;;;;14.45;8.75;;;15.70;99.90;;;;;;5043308;28;20083;-78
2022/06/05 06:48:21;;;;;;;13.75;9.50;;;15.70;99.90;;;;;;5046105;28;20583;-77
2022/06/05 06:50:46;;;;;;;15.05;8.93;;;15.80;99.90;;;;;;5048333;28;20544;-78
2022/06/05 06:53:12;;;;;;;12.25;8.98;;;15.80;99.90;;;;;;5038244;28;20047;-77
2022/06/05 06:55:38;;;;;;;10.63;8.35;;;15.90;99.90;;;;;;5046515;28;20158;-77
2022/06/05 06:58:04;;;;;;;11.88;8.63;;;15.90;99.90;;;;;;5041135;28;20705;-78
2022/06/05 07:00:30;;;;;;;11.88;8.98;;;15.90;99.90;;;;;;5045680;28;20072;-78
2022/06/05 07:02:55;;;;;;;13.70;8.55;;;16.00;99.90;;;;;;5045788;28;20167;-77
2022/06/05 07:05:21;;;;;;;13.93;8.85;;;16.00;99.90;;;;;;5043731;28;20127;-78
2022/06/05 07:07:47;;;;;;;12.55;7.97;;;16.10;99.90;;;;;;5075075;28;20045;-78
2022/06/05 07:10:12;;;;;;;10.18;7.65;;;16.10;99.90;;;;;;5039145;28;20046;-79
2022/06/05 07:12:38;;;;;;;12.35;8.30;;;16.20;99.90;;;;;;5067754;28;20079;-77
2022/06/05 07:15:06;;;;;;;11.93;8.57;;;16.30;99.90;;;;;;5068457;28;20044;-77
2022/06/05 07:17:33;;;;;;;13.07;8.98;;;16.30;99.90;;;;;;5057729;28;20087;-77
2022/06/05 07:19:59;;;;;;;12.05;8.65;;;16.30;99.90;;;;;;5037447;28;20198;-79
2022/06/05 07:22:25;;;;;;;11.98;8.57;;;16.40;99.90;;;;;;5038741;28;20469;-78
2022/06/05 07:24:51;;;;;;;12.18;9.15;;;16.50;99.90;;;;;;5047965;28;20045;-76
2022/06/05 07:27:17;;;;;;;12.07;8.93;;;16.50;99.90;;;;;;5038498;28;20063;-77
2022/06/05 07:29:43;;;;;;;14.30;9.48;;;16.50;99.90;;;;;;5037170;28;20046;-80
2022/06/05 07:32:09;;;;;;;14.45;9.27;;;16.60;99.90;;;;;;5036635;28;20127;-80
2022/06/05 07:34:35;;;;;;;14.05;9.05;;;16.70;99.90;;;;;;5047595;28;20040;-80
2022/06/05 07:37:01;;;;;;;14.90;8.98;;;16.70;99.90;;;;;;5074584;28;20095;-79
2022/06/05 07:39:29;;;;;;;12.00;8.75;;;16.80;99.90;;;;;;5040642;28;20036;-78
2022/06/05 07:41:58;;;;;;;14.27;8.90;;;16.80;99.90;;;;;;5040193;28;20099;-80
2022/06/05 07:44:27;;;;;;;11.50;8.73;;;16.90;99.90;;;;;;5042767;28;20091;-81
2022/06/05 07:46:54;;;;;;;13.98;8.98;;;17.00;99.90;;;;;;5044420;28;20686;-81
2022/06/05 07:49:22;;;;;;;12.13;9.27;;;17.00;99.90;;;;;;5044773;28;20094;-80
2022/06/05 07:54:37;;;;;;;12.85;8.77;;;17.10;99.90;;;;;;5032509;28;20144;-81
2022/06/05 07:57:02;;;;;;;13.93;7.97;;;17.20;99.90;;;;;;5031912;28;20132;-83
2022/06/05 07:59:30;;;;;;;15.10;8.65;;;17.30;99.90;;;;;;5044098;28;20063;-80
2022/06/05 08:01:58;;;;;;;14.60;9.18;;;17.40;99.90;;;;;;5043302;28;20063;-84
2022/06/05 08:04:25;;;;;;;11.02;8.63;;;17.50;99.90;;;;;;5041876;28;20056;-81
2022/06/05 08:06:51;;;;;;;10.40;7.68;;;17.50;99.90;;;;;;5039489;28;20234;-82
2022/06/05 08:09:17;;;;;;;12.35;8.32;;;17.60;99.90;;;;;;5045489;28;20037;-83
2022/06/05 08:11:46;;;;;;;9.68;7.68;;;17.70;99.90;;;;;;5036039;28;20041;-79
2022/06/05 08:14:14;;;;;;;12.40;8.02;;;17.80;99.90;;;;;;5068765;28;20056;-82
2022/06/05 08:16:43;;;;;;;11.77;7.45;;;17.80;99.90;;;;;;5035342;28;20163;-82
2022/06/05 08:19:13;;;;;;;9.32;6.93;;;18.00;99.90;;;;;;5041820;28;20037;-77
2022/06/05 08:21:42;;;;;;;12.88;8.02;;;18.00;99.90;;;;;;5072764;28;20126;-78
2022/06/05 08:24:09;;;;;;;11.90;8.32;;;18.20;99.90;;;;;;5043620;28;20048;-80
2022/06/05 08:26:35;;;;;;;9.88;7.13;;;18.20;99.90;;;;;;5034656;28;20316;-78
2022/06/05 08:29:01;;;;;;;14.65;7.47;;;18.30;99.90;;;;;;5048954;28;20043;-79
2022/06/05 08:31:27;;;;;;;9.10;7.22;;;18.40;99.90;;;;;;5049511;28;20033;-79
2022/06/05 08:33:53;;;;;;;14.50;7.32;;;18.50;99.90;;;;;;5046361;28;20234;-81
2022/06/05 08:36:18;;;;;;;9.18;7.35;;;18.60;99.90;;;;;;5043097;28;20259;-78
2022/06/05 08:41:28;;;;;;;9.40;7.03;;;18.80;99.90;;;;;;5051998;28;20045;-77
2022/06/05 08:44:14;;;;;;;12.07;6.75;;;18.80;99.90;;;;;;5048779;28;20060;-78
2022/06/05 08:46:45;;;;;;;9.65;7.10;;;19.00;99.90;;;;;;5040221;28;20044;-79
2022/06/05 08:49:14;;;;;;;10.93;7.82;;;19.00;99.90;;;;;;5037494;28;20176;-79
2022/06/05 08:52:03;;;;;;;9.82;6.28;;;19.10;99.90;;;;;;5035476;28;20052;-78
2022/06/05 08:54:53;;;;;;;11.27;6.70;;;19.20;99.90;;;;;;5079212;28;20912;-77
2022/06/05 08:57:27;;;;;;;7.07;6.25;;;19.30;99.90;;;;;;5037169;28;20068;-80
2022/06/05 09:00:21;;;;;;;8.32;6.50;;;19.30;99.90;;;;;;5041288;28;20045;-79
2022/06/05 09:03:21;;;;;;;7.10;5.95;;;19.50;99.90;;;;;;5033496;28;20751;-79
2022/06/05 09:05:54;;;;;;;8.88;6.40;;;19.60;99.90;;;;;;5041059;28;20159;-79
2022/06/05 09:08:25;;;;;;;10.32;6.93;;;19.70;99.90;;;;;;5049986;28;20048;-80
2022/06/05 09:11:04;;;;;;;10.55;6.13;;;19.70;99.90;;;;;;5045085;28;20102;-79
2022/06/05 09:13:50;;;;;;;9.82;6.20;;;19.80;99.90;;;;;;5048352;28;20056;-79
2022/06/05 09:16:24;;;;;;;7.65;5.80;;;19.90;99.90;;;;;;5046867;28;20051;-79
2022/06/05 09:18:50;;;;;;;9.48;6.05;;;19.90;99.90;;;;;;5046910;28;20140;-79
2022/06/05 09:21:29;;;;;;;12.07;6.65;;;20.00;99.90;;;;;;5050718;28;20204;-79
2022/06/05 09:24:23;;;;;;;7.72;5.78;;;20.00;99.90;;;;;;5049511;28;20063;-79
2022/06/05 09:27:10;;;;;;;13.25;6.40;;;20.10;99.90;;;;;;5045391;28;20406;-79
2022/06/05 09:29:43;;;;;;;10.00;5.65;;;20.10;99.90;;;;;;5050641;28;20404;-79
2022/06/05 09:32:43;;;;;;;10.23;5.65;;;20.20;99.90;;;;;;5035398;28;20046;-79
2022/06/05 09:35:28;;;;;;;8.75;6.00;;;20.20;99.90;;;;;;5044907;28;20049;-79
2022/06/05 09:38:10;;;;;;;9.20;6.13;;;20.30;99.90;;;;;;5047361;28;20160;-79
2022/06/05 09:40:38;;;;;;;9.30;5.68;;;20.40;99.90;;;;;;5041804;28;20092;-80
2022/06/05 09:43:41;;;;;;;5.93;5.03;;;20.50;99.90;;;;;;5041255;28;20116;-78
2022/06/05 09:46:10;;;;;;;9.07;5.82;;;20.60;99.90;;;;;;5050923;28;20056;-80
2022/06/05 09:48:57;;;;;;;9.85;6.50;;;20.70;99.90;;;;;;5047474;28;20052;-79
2022/06/05 09:51:24;;;;;;;7.25;5.47;;;20.80;99.90;;;;;;5049919;28;20051;-80
2022/06/05 09:54:21;;;;;;;7.50;5.70;;;20.90;99.90;;;;;;5048048;28;20124;-76
2022/06/05 10:00:14;;;;;;;6.35;5.32;;;21.10;99.90;;;;;;5008267;28;20073;-77
2022/06/05 10:02:42;;;;;;;12.50;5.30;;;21.20;99.90;;;;;;5048251;28;20049;-76
2022/06/05 10:05:21;;;;;;;7.85;6.05;;;21.30;99.90;;;;;;5050516;28;20037;-76
2022/06/05 10:07:52;;;;;;;7.70;5.30;;;21.40;99.90;;;;;;5044826;28;20407;-77
2022/06/05 10:10:25;;;;;;;10.40;5.20;;;21.40;99.90;;;;;;5047356;28;20124;-77
2022/06/05 10:12:55;;;;;;;8.45;5.03;;;21.50;99.90;;;;;;5045626;28;20043;-78
2022/06/05 10:15:33;;;;;;;8.77;5.10;;;21.50;99.90;;;;;;5041063;28;20040;-75
2022/06/05 10:18:04;;;;;;;8.82;5.00;;;21.60;99.90;;;;;;5044086;28;20108;-78
2022/06/05 10:20:54;;;;;;;6.60;5.18;;;21.60;99.90;;;;;;5051002;28;20388;-77
2022/06/05 10:23:28;;;;;;;10.07;4.60;;;21.70;99.90;;;;;;5058006;28;20080;-77
2022/06/05 10:26:17;;;;;;;7.72;4.82;;;21.70;99.90;;;;;;5030984;28;20049;-77
2022/06/05 10:28:45;;;;;;;7.28;5.80;;;21.80;99.90;;;;;;5042363;28;20477;-76
2022/06/05 10:31:19;;;;;;;13.82;5.07;;;21.80;99.90;;;;;;5046120;28;20077;-76
2022/06/05 10:33:54;;;;;;;6.82;5.20;;;21.90;99.90;;;;;;5032564;28;20111;-77
2022/06/05 10:36:22;;;;;;;6.60;5.20;;;21.90;99.90;;;;;;5033269;28;20574;-76
2022/06/05 10:39:07;;;;;;;7.47;5.10;;;22.00;99.90;;;;;;5045841;28;20123;-78
2022/06/05 10:41:41;;;;;;;5.40;4.68;;;22.10;99.90;;;;;;5045837;28;20041;-76
2022/06/05 10:44:28;;;;;;;5.63;4.80;;;22.20;99.90;;;;;;5035655;28;20050;-78
2022/06/05 10:47:10;;;;;;;5.85;4.65;;;22.30;99.90;;;;;;5036241;28;20041;-77
2022/06/05 10:49:58;;;;;;;7.28;5.15;;;22.30;99.90;;;;;;5039552;28;20311;-76
2022/06/05 10:53:01;;;;;;;7.55;4.95;;;22.40;99.90;;;;;;5031098;28;20041;-78
2022/06/05 10:55:42;;;;;;;7.10;4.47;;;22.40;99.90;;;;;;5043995;28;20076;-75
2022/06/05 10:58:41;;;;;;;6.38;4.38;;;22.50;99.90;;;;;;5038536;28;21908;-78
2022/06/05 11:01:12;;;;;;;8.95;4.85;;;22.50;99.90;;;;;;5043240;28;20092;-77
2022/06/05 11:03:57;;;;;;;6.05;4.65;;;22.60;99.90;;;;;;5046475;28;20090;-77
2022/06/05 11:06:32;;;;;;;9.20;5.07;;;22.60;99.90;;;;;;5044752;28;20069;-77
2022/06/05 11:09:26;;;;;;;7.25;4.95;;;22.70;99.90;;;;;;5047033;28;20116;-77
2022/06/05 11:15:11;;;;;;;9.35;5.00;;;22.70;99.90;;;;;;5065904;28;20041;-74
2022/06/05 11:17:51;;;;;;;6.70;4.32;;;22.70;99.90;;;;;;5044652;28;20152;-75
2022/06/05 11:20:21;;;;;;;9.65;4.57;;;22.70;99.90;;;;;;5031635;28;20064;-75
2022/06/05 11:22:56;;;;;;;9.55;4.50;;;22.80;99.90;;;;;;5073696;28;20062;-76
2022/06/05 11:25:43;;;;;;;8.32;4.22;;;22.80;99.90;;;;;;5040696;28;20041;-77
2022/06/05 11:28:31;;;;;;;12.75;4.30;;;22.80;99.90;;;;;;5040814;28;20497;-74
2022/06/05 11:31:28;;;;;;;12.30;4.78;;;22.80;99.90;;;;;;5044265;28;20055;-75
2022/06/05 11:34:24;;;;;;;11.48;4.30;;;22.80;99.90;;;;;;5041627;28;20051;-76
2022/06/05 11:36:52;;;;;;;11.55;4.43;;;22.90;99.90;;;;;;5041447;28;20076;-77
2022/06/05 11:39:29;;;;;;;8.35;4.93;;;22.90;99.90;;;;;;5047137;28;20477;-78
2022/06/05 11:42:14;;;;;;;6.75;4.18;;;23.00;99.90;;;;;;5046181;28;20059;-80
2022/06/05 11:44:52;;;;;;;7.43;4.40;;;23.10;99.90;;;;;;5048263;28;20047;-77
2022/06/05 11:47:40;;;;;;;6.47;4.43;;;23.10;99.90;;;;;;5040165;28;20037;-81
2022/06/05 11:50:29;;;;;;;5.75;4.20;;;23.20;99.90;;;;;;5044353;28;20099;-83
2022/06/05 11:53:18;;;;;;;5.38;4.28;;;23.20;99.90;;;;;;5044852;28;20085;-83
2022/06/05 11:56:15;;;;;;;11.48;4.28;;;23.20;99.90;;;;;;5037966;28;20055;-78
2022/06/05 11:59:14;;;;;;;6.15;4.18;;;23.20;99.90;;;;;;5044784;28;20393;-78
2022/06/05 12:01:45;;;;;;;7.18;3.97;;;23.30;99.80;;;;;;5022459;28;20120;-76
2022/06/05 12:04:32;;;;;;;7.80;4.05;;;23.30;99.60;;;;;;5035077;28;20358;-77
2022/06/05 12:07:00;;;;;;;4.50;4.00;;;23.30;99.30;;;;;;5030962;28;20044;-80
2022/06/05 12:09:29;;;;;;;7.38;4.75;;;23.30;99.30;;;;;;5034756;28;20112;-78
2022/06/05 12:12:18;;;;;;;5.32;4.07;;;23.30;99.10;;;;;;5046310;28;20045;-84
2022/06/05 12:14:56;;;;;;;8.50;4.07;;;23.30;99.00;;;;;;5041625;28;20057;-85
2022/06/05 12:17:34;;;;;;;11.27;4.30;;;23.30;98.90;;;;;;5039139;28;20071;-79
2022/06/05 12:20:06;;;;;;;5.70;4.60;;;23.30;98.90;;;;;;5046135;28;20107;-79
2022/06/05 12:22:46;;;;;;;6.78;4.10;;;23.30;98.80;;;;;;5042616;28;20485;-80
2022/06/05 12:25:23;;;;;;;5.72;3.88;;;23.30;98.50;;;;;;5026923;28;20155;-82
2022/06/05 12:28:11;;;;;;;4.75;3.67;;;23.30;98.40;;;;;;5035122;28;20045;-83
2022/06/05 12:30:49;;;;;;;9.43;3.58;;;23.30;98.50;;;;;;5043555;28;20045;-84
2022/06/05 12:33:17;;;;;;;10.48;4.05;;;23.30;98.50;;;;;;5039753;28;20152;-84
2022/06/05 12:35:49;;;;;;;6.60;4.18;;;23.40;98.50;;;;;;5033055;28;20045;-84
2022/06/05 12:38:26;;;;;;;6.57;4.20;;;23.40;98.20;;;;;;5046170;28;20040;-80
2022/06/05 12:40:58;;;;;;;9.85;3.95;;;23.40;98.10;;;;;;5046705;28;20045;-80
2022/06/05 12:43:40;;;;;;;9.13;4.55;;;23.50;97.90;;;;;;5046371;28;20048;-81
2022/06/05 12:46:20;;;;;;;7.05;4.13;;;23.50;97.80;;;;;;5047623;28;20073;-80
2022/06/05 12:48:46;;;;;;;6.73;4.33;;;23.60;97.80;;;;;;5041302;28;20046;-79
2022/06/05 12:51:20;;;;;;;8.02;3.97;;;23.60;97.50;;;;;;5026246;28;20045;-79
2022/06/05 12:54:00;;;;;;;7.57;4.40;;;23.60;97.20;;;;;;5029186;28;20054;-79
2022/06/05 12:56:43;;;;;;;8.57;4.25;;;23.50;97.20;;;;;;5045589;28;20075;-79
2022/06/05 12:59:35;;;;;;;10.50;4.60;;;23.50;97.00;;;;;;5038411;28;20054;-81
2022/06/05 13:02:36;;;;;;;5.97;4.10;;;23.50;97.00;;;;;;5027693;28;20073;-80
2022/06/05 13:05:15;;;;;;;5.50;3.75;;;23.50;97.10;;;;;;5022959;28;20056;-80
2022/06/05 13:08:00;;;;;;;8.23;3.90;;;23.50;97.20;;;;;;5031913;28;20483;-80
2022/06/05 13:10:35;;;;;;;6.40;4.07;;;23.50;97.20;;;;;;5036959;28;20029;-78
2022/06/05 13:13:28;;;;;;;8.63;4.22;;;23.50;96.90;;;;;;5034661;28;20052;-79
2022/06/05 13:15:58;;;;;;;20.75;5.18;;;23.50;97.00;;;;;;5045620;28;20053;-80
2022/06/05 13:18:45;;;;;;;6.82;3.90;;;23.50;97.20;;;;;;5047037;28;20040;-79
2022/06/05 13:21:32;;;;;;;5.20;3.60;;;23.50;97.10;;;;;;5043640;28;20508;-79
2022/06/05 13:24:11;;;;;;;5.72;3.92;;;23.50;97.10;;;;;;5032739;28;20604;-80
2022/06/05 13:27:03;;;;;;;6.35;3.97;;;23.40;97.20;;;;;;5032951;28;20052;-81
2022/06/05 13:29:53;;;;;;;6.03;3.60;;;23.50;97.20;;;;;;5038774;28;20505;-82